createdAt,value
2018-11-03T00:00:03.421Z,19.3
2018-11-03T00:01:05.052Z,19.3
2018-11-03T00:02:06.973Z,19.4
2018-11-03T00:03:08.884Z,19.3
2018-11-03T00:04:10.233Z,19.3
2018-11-03T00:05:11.561Z,19.3
2018-11-03T00:06:13.473Z,19.3
2018-11-03T00:07:15.082Z,19.3
2018-11-03T00:08:16.124Z,19.3
2018-11-03T00:09:18.718Z,19.3
2018-11-03T00:10:20.638Z,19.3
2018-11-03T00:11:22.324Z,19.3
2018-11-03T00:12:23.649Z,19.3
2018-11-03T00:13:25.545Z,19.4
2018-11-03T00:14:27.462Z,19.3
2018-11-03T00:15:29.356Z,19.3
2018-11-03T00:16:31.293Z,19.3
2018-11-03T00:17:32.649Z,19.3
2018-11-03T00:18:33.979Z,19.2
2018-11-03T00:19:35.879Z,19.3
2018-11-03T00:20:37.504Z,19.3
2018-11-03T00:21:38.866Z,19.3
2018-11-03T00:22:41.797Z,19.2
2018-11-03T00:23:43.399Z,19.3
2018-11-03T00:24:45.300Z,19.3
2018-11-03T00:25:47.194Z,19.3
2018-11-03T00:26:49.087Z,19.2
2018-11-03T00:27:50.982Z,19.2
2018-11-03T00:28:52.304Z,19.3
2018-11-03T00:29:53.649Z,19.3
2018-11-03T00:30:55.540Z,19.2
2018-11-03T00:31:57.159Z,19.3
2018-11-03T00:32:58.499Z,19.3
2018-11-03T00:33:59.819Z,19.2
2018-11-03T00:35:01.442Z,19.2
2018-11-03T00:36:03.539Z,19.3
2018-11-03T00:37:05.159Z,19.3
2018-11-03T00:38:06.815Z,19.3
2018-11-03T00:39:08.137Z,19.3
2018-11-03T00:40:09.736Z,19.3
2018-11-03T00:41:11.354Z,19.2
2018-11-03T00:42:12.975Z,19.2
2018-11-03T00:43:14.576Z,19.3
2018-11-03T00:44:16.470Z,19.3
2018-11-03T00:45:18.091Z,19.3
2018-11-03T00:46:19.131Z,19.3
2018-11-03T00:47:20.479Z,19.2
2018-11-03T00:48:22.376Z,19.2
2018-11-03T00:49:24.254Z,19.2
2018-11-03T00:50:25.846Z,19.3
2018-11-03T00:51:27.165Z,19.2
2018-11-03T00:52:29.061Z,19.2
2018-11-03T00:53:31.004Z,19.2
2018-11-03T00:54:32.320Z,19.2
2018-11-03T00:55:33.941Z,19.3
2018-11-03T00:56:35.563Z,19.3
2018-11-03T00:57:37.156Z,19.3
2018-11-03T00:58:39.056Z,19.3
2018-11-03T00:59:40.408Z,19.2
2018-11-03T01:00:42.314Z,19.3
2018-11-03T01:01:43.654Z,19.2
2018-11-03T01:02:45.258Z,19.3
2018-11-03T01:03:47.797Z,19.2
2018-11-03T01:04:49.688Z,19.2
2018-11-03T01:05:51.304Z,19.3
2018-11-03T01:06:52.643Z,19.2
2018-11-03T01:07:53.984Z,19.2
2018-11-03T01:08:55.885Z,19.3
2018-11-03T01:09:57.508Z,19.2
2018-11-03T01:10:59.402Z,19.2
2018-11-03T01:12:00.742Z,19.3
2018-11-03T01:13:02.359Z,19.2
2018-11-03T01:14:04.257Z,19.2
2018-11-03T01:15:05.870Z,19.2
2018-11-03T01:16:07.491Z,19.2
2018-11-03T01:17:10.147Z,19.2
2018-11-03T01:18:12.043Z,19.2
2018-11-03T01:19:13.950Z,19.2
2018-11-03T01:20:15.566Z,19.2
2018-11-03T01:21:17.184Z,19.2
2018-11-03T01:22:19.081Z,19.2
2018-11-03T01:23:20.422Z,19.2
2018-11-03T01:24:22.042Z,19.2
2018-11-03T01:25:23.662Z,19.2
2018-11-03T01:26:25.277Z,19.2
2018-11-03T01:27:27.170Z,19.2
2018-11-03T01:28:29.063Z,19.1
2018-11-03T01:29:30.707Z,19.1
2018-11-03T01:30:32.323Z,19.1
2018-11-03T01:31:34.764Z,19.2
2018-11-03T01:32:35.653Z,19.1
2018-11-03T01:33:37.763Z,19.1
2018-11-03T01:34:38.835Z,19.2
2018-11-03T01:35:40.186Z,19.1
2018-11-03T01:36:42.080Z,19.1
2018-11-03T01:37:43.678Z,19.1
2018-11-03T01:38:45.000Z,19.1
2018-11-03T01:39:46.342Z,19.2
2018-11-03T01:40:47.965Z,19.1
2018-11-03T01:41:49.587Z,19.2
2018-11-03T01:42:51.514Z,19.2
2018-11-03T01:43:53.134Z,19.2
2018-11-03T01:44:55.428Z,19.2
2018-11-03T01:45:57.044Z,19.1
2018-11-03T01:46:58.678Z,19.2
2018-11-03T01:48:00.367Z,19.2
2018-11-03T01:49:01.984Z,19.1
2018-11-03T01:50:03.050Z,19.1
2018-11-03T01:51:04.947Z,19.1
2018-11-03T01:52:06.008Z,19.1
2018-11-03T01:53:07.903Z,19.1
2018-11-03T01:54:09.831Z,19.1
2018-11-03T01:55:11.456Z,19.1
2018-11-03T01:56:13.351Z,19.2
2018-11-03T01:57:14.972Z,19.1
2018-11-03T01:58:17.029Z,19.1
2018-11-03T01:59:19.122Z,19.1
2018-11-03T02:00:20.751Z,19.1
2018-11-03T02:01:22.351Z,19.1
2018-11-03T02:02:23.952Z,19.1
2018-11-03T02:03:24.994Z,19.1
2018-11-03T02:04:26.890Z,19.1
2018-11-03T02:05:28.511Z,19.1
2018-11-03T02:06:30.457Z,19
2018-11-03T02:07:31.524Z,19
2018-11-03T02:08:33.420Z,19.1
2018-11-03T02:09:35.323Z,19.1
2018-11-03T02:10:36.946Z,19
2018-11-03T02:11:38.290Z,19
2018-11-03T02:12:40.411Z,19
2018-11-03T02:13:44.119Z,19
2018-11-03T02:14:45.421Z,19
2018-11-03T02:15:47.352Z,19.1
2018-11-03T02:16:49.243Z,19.1
2018-11-03T02:17:51.138Z,19
2018-11-03T02:18:52.178Z,19
2018-11-03T02:19:54.072Z,19
2018-11-03T02:20:55.736Z,19
2018-11-03T02:21:57.052Z,19
2018-11-03T02:22:58.669Z,19
2018-11-03T02:24:00.571Z,19.1
2018-11-03T02:25:02.515Z,19
2018-11-03T02:26:03.867Z,19
2018-11-03T02:27:05.484Z,19
2018-11-03T02:28:07.956Z,19
2018-11-03T02:29:09.292Z,19
2018-11-03T02:30:10.911Z,19
2018-11-03T02:31:12.805Z,19.1
2018-11-03T02:32:14.429Z,19
2018-11-03T02:33:16.323Z,19.1
2018-11-03T02:34:17.640Z,19.1
2018-11-03T02:35:18.965Z,19.1
2018-11-03T02:36:20.308Z,19.1
2018-11-03T02:37:22.221Z,19.2
2018-11-03T02:38:23.574Z,19
2018-11-03T02:39:25.171Z,19.1
2018-11-03T02:40:26.785Z,19.1
2018-11-03T02:41:29.588Z,19.1
2018-11-03T02:42:31.680Z,19.1
2018-11-03T02:43:33.308Z,19.1
2018-11-03T02:44:34.938Z,19
2018-11-03T02:45:36.308Z,19
2018-11-03T02:46:37.660Z,19
2018-11-03T02:47:39.277Z,19
2018-11-03T02:48:40.601Z,19.1
2018-11-03T02:49:42.523Z,19.1
2018-11-03T02:50:43.845Z,19
2018-11-03T02:51:45.563Z,19.2
2018-11-03T02:52:47.457Z,19.1
2018-11-03T02:53:49.078Z,19.1
2018-11-03T02:54:50.976Z,19.1
2018-11-03T02:55:54.210Z,19.1
2018-11-03T02:56:56.105Z,19.1
2018-11-03T02:57:57.736Z,19.1
2018-11-03T02:58:59.348Z,19.2
2018-11-03T03:00:01.247Z,19.1
2018-11-03T03:01:02.881Z,19.1
2018-11-03T03:02:04.510Z,19.1
2018-11-03T03:03:05.574Z,19.1
2018-11-03T03:04:07.188Z,19.1
2018-11-03T03:05:08.527Z,19.1
2018-11-03T03:06:10.228Z,19
2018-11-03T03:07:12.127Z,19.1
2018-11-03T03:08:13.753Z,19.1
2018-11-03T03:09:15.931Z,19.1
2018-11-03T03:10:17.553Z,19.1
2018-11-03T03:11:19.477Z,19
2018-11-03T03:12:21.094Z,19.1
2018-11-03T03:13:22.703Z,19.1
2018-11-03T03:14:24.289Z,19
2018-11-03T03:15:25.917Z,19
2018-11-03T03:16:27.538Z,19.1
2018-11-03T03:17:29.440Z,19
2018-11-03T03:18:31.066Z,19
2018-11-03T03:19:32.989Z,19
2018-11-03T03:20:34.598Z,19
2018-11-03T03:21:35.936Z,18.9
2018-11-03T03:22:37.738Z,18.9
2018-11-03T03:23:39.493Z,19
2018-11-03T03:24:41.416Z,19
2018-11-03T03:25:42.751Z,19.1
2018-11-03T03:26:44.652Z,19.1
2018-11-03T03:27:45.993Z,19.1
2018-11-03T03:28:47.914Z,19
2018-11-03T03:29:49.471Z,19
2018-11-03T03:30:50.826Z,19.1
2018-11-03T03:31:51.876Z,19
2018-11-03T03:32:53.472Z,19.1
2018-11-03T03:33:55.069Z,19.1
2018-11-03T03:34:56.963Z,19.1
2018-11-03T03:35:59.005Z,19
2018-11-03T03:37:00.967Z,19
2018-11-03T03:38:02.590Z,19.1
2018-11-03T03:39:04.217Z,19.1
2018-11-03T03:40:05.555Z,19.1
2018-11-03T03:41:06.603Z,19
2018-11-03T03:42:08.500Z,19
2018-11-03T03:43:09.852Z,19.1
2018-11-03T03:44:11.790Z,19
2018-11-03T03:45:13.391Z,18.9
2018-11-03T03:46:14.444Z,18.9
2018-11-03T03:47:16.060Z,19
2018-11-03T03:48:17.679Z,19
2018-11-03T03:49:19.294Z,18.9
2018-11-03T03:50:22.150Z,19
2018-11-03T03:51:23.757Z,19
2018-11-03T03:52:25.105Z,19
2018-11-03T03:53:27.013Z,19
2018-11-03T03:54:28.353Z,19
2018-11-03T03:55:30.264Z,19.1
2018-11-03T03:56:32.163Z,19.1
2018-11-03T03:57:33.203Z,19
2018-11-03T03:58:34.546Z,18.9
2018-11-03T03:59:36.167Z,18.9
2018-11-03T04:00:37.783Z,19
2018-11-03T04:01:39.405Z,19
2018-11-03T04:02:41.025Z,19
2018-11-03T04:03:44.230Z,19
2018-11-03T04:04:45.868Z,18.9
2018-11-03T04:05:47.778Z,18.9
2018-11-03T04:06:49.133Z,18.9
2018-11-03T04:07:51.062Z,19
2018-11-03T04:08:53.012Z,19
2018-11-03T04:09:54.907Z,19
2018-11-03T04:10:56.801Z,19
2018-11-03T04:11:58.439Z,18.9
2018-11-03T04:13:00.355Z,19
2018-11-03T04:14:01.697Z,19
2018-11-03T04:15:02.759Z,18.9
2018-11-03T04:16:04.080Z,19
2018-11-03T04:17:06.206Z,18.9
2018-11-03T04:18:08.145Z,19
2018-11-03T04:19:09.773Z,18.9
2018-11-03T04:20:11.494Z,18.9
2018-11-03T04:21:13.142Z,18.9
2018-11-03T04:22:15.047Z,18.9
2018-11-03T04:23:16.371Z,19
2018-11-03T04:24:18.303Z,18.9
2018-11-03T04:25:19.920Z,18.9
2018-11-03T04:26:21.614Z,19
2018-11-03T04:27:23.230Z,18.9
2018-11-03T04:28:24.851Z,18.9
2018-11-03T04:29:26.472Z,18.9
2018-11-03T04:30:28.870Z,19
2018-11-03T04:31:30.530Z,19
2018-11-03T04:32:32.425Z,18.9
2018-11-03T04:33:34.045Z,18.9
2018-11-03T04:34:35.402Z,18.9
2018-11-03T04:35:36.719Z,18.9
2018-11-03T04:36:38.336Z,18.9
2018-11-03T04:37:39.977Z,18.9
2018-11-03T04:38:41.598Z,19
2018-11-03T04:39:43.250Z,18.9
2018-11-03T04:40:44.566Z,19
2018-11-03T04:41:46.524Z,18.9
2018-11-03T04:42:48.144Z,19
2018-11-03T04:43:50.402Z,18.9
2018-11-03T04:44:51.753Z,18.9
2018-11-03T04:45:53.651Z,18.9
2018-11-03T04:46:55.543Z,18.9
2018-11-03T04:47:57.164Z,19
2018-11-03T04:48:58.489Z,18.9
2018-11-03T04:49:59.806Z,19
2018-11-03T04:51:01.148Z,18.9
2018-11-03T04:52:02.471Z,18.9
2018-11-03T04:53:04.404Z,19
2018-11-03T04:54:06.059Z,18.9
2018-11-03T04:55:08.045Z,18.9
2018-11-03T04:56:10.545Z,18.9
2018-11-03T04:57:12.811Z,19
2018-11-03T04:58:14.207Z,18.9
2018-11-03T04:59:16.106Z,18.9
2018-11-03T05:00:18.012Z,18.9
2018-11-03T05:01:19.920Z,18.9
2018-11-03T05:02:21.815Z,18.9
2018-11-03T05:03:23.198Z,18.9
2018-11-03T05:04:24.567Z,18.9
2018-11-03T05:05:26.458Z,18.9
2018-11-03T05:06:27.826Z,18.9
2018-11-03T05:07:29.731Z,19
2018-11-03T05:08:31.075Z,18.9
2018-11-03T05:09:32.992Z,18.9
2018-11-03T05:10:35.064Z,18.9
2018-11-03T05:11:37.957Z,19
2018-11-03T05:12:39.576Z,18.9
2018-11-03T05:13:40.917Z,18.9
2018-11-03T05:14:42.246Z,19
2018-11-03T05:15:44.173Z,18.9
2018-11-03T05:16:46.076Z,18.9
2018-11-03T05:17:47.694Z,19
2018-11-03T05:18:49.033Z,18.9
2018-11-03T05:19:50.651Z,18.9
2018-11-03T05:20:51.695Z,19
2018-11-03T05:21:53.594Z,19
2018-11-03T05:22:55.545Z,18.9
2018-11-03T05:23:57.162Z,18.9
2018-11-03T05:24:58.901Z,19
2018-11-03T05:26:01.158Z,18.9
2018-11-03T05:27:02.756Z,19
2018-11-03T05:28:04.680Z,18.9
2018-11-03T05:29:06.577Z,18.9
2018-11-03T05:30:08.196Z,18.9
2018-11-03T05:31:10.144Z,18.9
2018-11-03T05:32:12.540Z,18.9
2018-11-03T05:33:14.156Z,18.9
2018-11-03T05:34:15.774Z,18.9
2018-11-03T05:35:17.390Z,18.9
2018-11-03T05:36:19.048Z,18.9
2018-11-03T05:37:20.667Z,18.9
2018-11-03T05:38:21.999Z,18.9
2018-11-03T05:39:23.598Z,19
2018-11-03T05:40:25.704Z,18.9
2018-11-03T05:41:27.599Z,19
2018-11-03T05:42:29.499Z,18.9
2018-11-03T05:43:30.823Z,18.9
2018-11-03T05:44:32.168Z,18.9
2018-11-03T05:45:33.509Z,18.9
2018-11-03T05:46:34.915Z,18.9
2018-11-03T05:47:37.128Z,19.1
2018-11-03T05:48:39.034Z,19.1
2018-11-03T05:49:40.969Z,19.1
2018-11-03T05:50:42.588Z,19.1
2018-11-03T05:51:43.659Z,19
2018-11-03T05:52:44.993Z,19
2018-11-03T05:53:46.987Z,19
2018-11-03T05:54:48.604Z,19
2018-11-03T05:55:50.203Z,18.9
2018-11-03T05:56:51.823Z,18.9
2018-11-03T05:57:53.442Z,18.9
2018-11-03T05:58:54.840Z,18.9
2018-11-03T05:59:57.459Z,18.9
2018-11-03T06:00:59.053Z,18.9
2018-11-03T06:02:00.396Z,18.9
2018-11-03T06:03:02.027Z,18.9
2018-11-03T06:04:03.631Z,18.9
2018-11-03T06:05:05.229Z,18.9
2018-11-03T06:06:06.846Z,18.9
2018-11-03T06:07:08.469Z,18.9
2018-11-03T06:08:10.777Z,18.9
2018-11-03T06:09:12.122Z,18.9
2018-11-03T06:10:13.743Z,19
2018-11-03T06:11:15.342Z,18.9
2018-11-03T06:12:16.664Z,19
2018-11-03T06:13:18.284Z,19
2018-11-03T06:14:19.914Z,18.9
2018-11-03T06:15:21.555Z,18.9
2018-11-03T06:16:23.729Z,19
2018-11-03T06:17:25.348Z,19
2018-11-03T06:18:27.244Z,18.9
2018-11-03T06:19:28.841Z,18.9
2018-11-03T06:20:30.462Z,18.9
2018-11-03T06:21:32.846Z,18.9
2018-11-03T06:22:34.949Z,19
2018-11-03T06:23:37.072Z,19
2018-11-03T06:24:39.011Z,18.9
2018-11-03T06:25:40.925Z,19
2018-11-03T06:26:42.821Z,19
2018-11-03T06:27:44.717Z,18.9
2018-11-03T06:28:46.371Z,19
2018-11-03T06:29:48.002Z,18.9
2018-11-03T06:30:49.911Z,19
2018-11-03T06:31:51.812Z,18.9
2018-11-03T06:32:53.432Z,18.9
2018-11-03T06:33:54.475Z,18.9
2018-11-03T06:34:55.537Z,18.9
2018-11-03T06:35:58.006Z,18.9
2018-11-03T06:36:59.663Z,18.9
2018-11-03T06:38:01.283Z,18.9
2018-11-03T06:39:03.011Z,19
2018-11-03T06:40:04.131Z,19
2018-11-03T06:41:05.170Z,19
2018-11-03T06:42:07.085Z,19
2018-11-03T06:43:09.001Z,19
2018-11-03T06:44:10.900Z,19
2018-11-03T06:45:12.253Z,19.1
2018-11-03T06:46:13.885Z,19
2018-11-03T06:47:15.835Z,19
2018-11-03T06:48:17.746Z,18.9
2018-11-03T06:49:19.085Z,19.1
2018-11-03T06:50:21.419Z,19
2018-11-03T06:51:23.315Z,19
2018-11-03T06:52:24.778Z,19
2018-11-03T06:53:26.777Z,19.1
2018-11-03T06:54:28.396Z,19
2018-11-03T06:55:30.016Z,19
2018-11-03T06:56:31.912Z,19.1
2018-11-03T06:57:33.536Z,19.1
2018-11-03T06:58:35.179Z,19
2018-11-03T06:59:36.497Z,19
2018-11-03T07:00:38.092Z,19.1
2018-11-03T07:01:39.720Z,19
2018-11-03T07:02:41.341Z,19
2018-11-03T07:03:43.501Z,19.1
2018-11-03T07:04:44.567Z,19
2018-11-03T07:05:46.465Z,19
2018-11-03T07:06:48.361Z,19
2018-11-03T07:07:50.256Z,19.1
2018-11-03T07:08:51.600Z,19
2018-11-03T07:09:52.944Z,19
2018-11-03T07:10:54.561Z,19.1
2018-11-03T07:11:56.251Z,19.1
2018-11-03T07:12:57.950Z,18.9
2018-11-03T07:13:59.635Z,19.1
2018-11-03T07:15:00.692Z,19.1
2018-11-03T07:16:02.012Z,19
2018-11-03T07:17:03.708Z,19.1
2018-11-03T07:18:05.343Z,19
2018-11-03T07:19:06.938Z,19
2018-11-03T07:20:08.555Z,19
2018-11-03T07:21:10.167Z,19
2018-11-03T07:22:11.821Z,19.1
2018-11-03T07:23:13.508Z,19
2018-11-03T07:24:14.577Z,19.1
2018-11-03T07:25:16.473Z,19
2018-11-03T07:26:17.790Z,19.1
2018-11-03T07:27:19.391Z,19
2018-11-03T07:28:21.011Z,19
2018-11-03T07:29:22.673Z,19.1
2018-11-03T07:30:25.919Z,19
2018-11-03T07:31:27.818Z,19
2018-11-03T07:32:28.882Z,19.1
2018-11-03T07:33:30.507Z,19.1
2018-11-03T07:34:32.401Z,19
2018-11-03T07:35:33.718Z,19.1
2018-11-03T07:36:35.333Z,18.9
2018-11-03T07:37:36.964Z,18.9
2018-11-03T07:38:38.893Z,19
2018-11-03T07:39:40.229Z,19.1
2018-11-03T07:40:41.890Z,19
2018-11-03T07:41:44.140Z,19
2018-11-03T07:42:45.858Z,18.9
2018-11-03T07:43:47.858Z,19
2018-11-03T07:44:49.180Z,19
2018-11-03T07:45:50.522Z,19.1
2018-11-03T07:46:51.879Z,19.1
2018-11-03T07:47:53.559Z,19
2018-11-03T07:48:55.370Z,18.9
2018-11-03T07:49:57.846Z,19
2018-11-03T07:50:58.916Z,18.9
2018-11-03T07:52:00.580Z,18.9
2018-11-03T07:53:01.622Z,18.9
2018-11-03T07:54:02.966Z,19
2018-11-03T07:55:04.961Z,18.9
2018-11-03T07:56:06.351Z,18.9
2018-11-03T07:57:08.254Z,18.9
2018-11-03T07:58:09.895Z,18.9
2018-11-03T07:59:11.524Z,19
2018-11-03T08:00:13.134Z,19
2018-11-03T08:01:15.100Z,18.9
2018-11-03T08:02:16.996Z,18.9
2018-11-03T08:03:18.344Z,18.9
2018-11-03T08:04:20.243Z,18.9
2018-11-03T08:05:21.860Z,18.9
2018-11-03T08:06:23.183Z,18.9
2018-11-03T08:07:24.229Z,18.9
2018-11-03T08:08:26.837Z,18.9
2018-11-03T08:09:28.760Z,19
2018-11-03T08:10:30.371Z,18.9
2018-11-03T08:11:31.413Z,18.9
2018-11-03T08:12:33.308Z,18.9
2018-11-03T08:13:34.658Z,18.9
2018-11-03T08:14:36.568Z,18.9
2018-11-03T08:15:38.603Z,19
2018-11-03T08:16:40.507Z,18.9
2018-11-03T08:17:42.405Z,19
2018-11-03T08:18:44.081Z,18.9
2018-11-03T08:19:45.975Z,18.9
2018-11-03T08:20:47.573Z,18.9
2018-11-03T08:21:49.165Z,18.9
2018-11-03T08:22:51.345Z,19
2018-11-03T08:23:53.312Z,18.9
2018-11-03T08:24:55.687Z,18.9
2018-11-03T08:25:57.592Z,18.9
2018-11-03T08:26:59.558Z,18.9
2018-11-03T08:28:01.505Z,18.9
2018-11-03T08:29:02.879Z,18.9
2018-11-03T08:30:04.229Z,18.9
2018-11-03T08:31:05.826Z,19
2018-11-03T08:32:07.738Z,18.9
2018-11-03T08:33:09.058Z,18.9
2018-11-03T08:34:10.678Z,18.9
2018-11-03T08:35:12.580Z,18.9
2018-11-03T08:36:14.504Z,19
2018-11-03T08:37:17.552Z,18.9
2018-11-03T08:38:19.180Z,18.9
2018-11-03T08:39:21.116Z,19
2018-11-03T08:40:23.261Z,19
2018-11-03T08:41:24.877Z,19
2018-11-03T08:42:26.511Z,18.9
2018-11-03T08:43:28.133Z,19
2018-11-03T08:44:29.728Z,19
2018-11-03T08:45:31.322Z,19
2018-11-03T08:46:32.989Z,19
2018-11-03T08:47:34.615Z,19.1
2018-11-03T08:48:36.555Z,19
2018-11-03T08:49:38.896Z,19
2018-11-03T08:50:40.518Z,19
2018-11-03T08:51:42.714Z,19.1
2018-11-03T08:52:44.977Z,18.9
2018-11-03T08:53:46.874Z,18.9
2018-11-03T08:54:48.499Z,18.9
2018-11-03T08:55:50.422Z,19
2018-11-03T08:56:52.043Z,19
2018-11-03T08:57:53.753Z,19
2018-11-03T08:58:55.405Z,19
2018-11-03T08:59:57.178Z,18.9
2018-11-03T09:00:59.037Z,19
2018-11-03T09:02:00.651Z,18.9
2018-11-03T09:03:01.971Z,18.9
2018-11-03T09:04:03.016Z,18.9
2018-11-03T09:05:04.344Z,18.9
2018-11-03T09:06:06.793Z,18.9
2018-11-03T09:07:08.142Z,19
2018-11-03T09:08:10.288Z,19
2018-11-03T09:09:11.907Z,19
2018-11-03T09:10:13.276Z,18.9
2018-11-03T09:11:14.880Z,19
2018-11-03T09:12:16.500Z,19.1
2018-11-03T09:13:18.130Z,19
2018-11-03T09:14:20.039Z,19
2018-11-03T09:15:21.648Z,18.9
2018-11-03T09:16:23.831Z,19
2018-11-03T09:17:25.729Z,19
2018-11-03T09:18:26.792Z,19
2018-11-03T09:19:28.412Z,19
2018-11-03T09:20:30.670Z,19.1
2018-11-03T09:21:32.439Z,19
2018-11-03T09:22:34.653Z,19.1
2018-11-03T09:23:36.483Z,19.1
2018-11-03T09:24:38.105Z,19.1
2018-11-03T09:25:39.495Z,19.1
2018-11-03T09:26:41.113Z,19.1
2018-11-03T09:27:43.018Z,19.1
2018-11-03T09:28:44.915Z,19.1
2018-11-03T09:29:46.533Z,19.1
2018-11-03T09:30:48.152Z,19.1
2018-11-03T09:31:50.149Z,19
2018-11-03T09:32:52.037Z,19
2018-11-03T09:33:53.929Z,19
2018-11-03T09:34:56.404Z,19
2018-11-03T09:35:58.314Z,19.1
2018-11-03T09:36:59.656Z,19.1
2018-11-03T09:38:01.550Z,19
2018-11-03T09:39:03.482Z,18.9
2018-11-03T09:40:05.264Z,18.9
2018-11-03T09:41:06.307Z,19
2018-11-03T09:42:07.931Z,18.9
2018-11-03T09:43:10.010Z,18.9
2018-11-03T09:44:12.127Z,18.9
2018-11-03T09:45:14.031Z,18.9
2018-11-03T09:46:15.073Z,18.9
2018-11-03T09:47:16.422Z,18.9
2018-11-03T09:48:18.315Z,18.9
2018-11-03T09:49:20.979Z,18.9
2018-11-03T09:50:23.188Z,18.9
2018-11-03T09:51:24.669Z,18.9
2018-11-03T09:52:25.436Z,18.9
2018-11-03T09:53:27.330Z,19
2018-11-03T09:54:28.651Z,19
2018-11-03T09:55:30.554Z,18.9
2018-11-03T09:56:32.245Z,19
2018-11-03T09:57:33.724Z,19
2018-11-03T09:58:35.344Z,19.1
2018-11-03T09:59:37.238Z,19
2018-11-03T10:00:38.285Z,18.9
2018-11-03T10:01:39.943Z,18.9
2018-11-03T10:02:41.283Z,19
2018-11-03T10:03:42.906Z,19
2018-11-03T10:04:44.525Z,19
2018-11-03T10:05:46.158Z,19
2018-11-03T10:06:47.803Z,19
2018-11-03T10:07:49.397Z,18.9
2018-11-03T10:08:51.018Z,19
2018-11-03T10:09:52.914Z,19.1
2018-11-03T10:10:54.533Z,19.1
2018-11-03T10:11:55.874Z,19
2018-11-03T10:12:57.496Z,19.1
2018-11-03T10:13:59.113Z,18.9
2018-11-03T10:15:00.438Z,18.9
2018-11-03T10:16:02.144Z,19
2018-11-03T10:17:04.078Z,19
2018-11-03T10:18:05.122Z,19
2018-11-03T10:19:06.719Z,19
2018-11-03T10:20:08.039Z,19.1
2018-11-03T10:21:09.933Z,19
2018-11-03T10:22:11.630Z,19.1
2018-11-03T10:23:13.483Z,19.1
2018-11-03T10:24:15.379Z,19.1
2018-11-03T10:25:17.301Z,19.1
2018-11-03T10:26:19.210Z,19.1
2018-11-03T10:27:20.548Z,19.1
2018-11-03T10:28:22.165Z,19.2
2018-11-03T10:29:23.787Z,19.1
2018-11-03T10:30:25.344Z,19.1
2018-11-03T10:31:26.969Z,19.1
2018-11-03T10:32:28.867Z,19.1
2018-11-03T10:33:30.246Z,19
2018-11-03T10:34:31.755Z,19.1
2018-11-03T10:35:33.373Z,19.1
2018-11-03T10:36:34.714Z,19.1
2018-11-03T10:37:36.039Z,19.1
2018-11-03T10:38:37.936Z,19.1
2018-11-03T10:39:39.840Z,19
2018-11-03T10:40:41.455Z,19.1
2018-11-03T10:41:43.355Z,19.2
2018-11-03T10:42:44.398Z,19.2
2018-11-03T10:43:46.016Z,19.2
2018-11-03T10:44:50.030Z,19.2
2018-11-03T10:45:51.350Z,19.2
2018-11-03T10:46:53.245Z,19.2
2018-11-03T10:47:54.591Z,19.3
2018-11-03T10:48:56.222Z,19.2
2018-11-03T10:49:57.844Z,19.2
2018-11-03T10:50:59.746Z,19.2
2018-11-03T10:52:01.179Z,19.2
2018-11-03T10:53:02.522Z,19.2
2018-11-03T10:54:04.141Z,19.3
2018-11-03T10:55:05.738Z,19.3
2018-11-03T10:56:07.082Z,19.2
2018-11-03T10:57:08.706Z,19.3
2018-11-03T10:58:10.672Z,19.3
2018-11-03T10:59:13.087Z,19.3
2018-11-03T11:00:14.708Z,19.3
2018-11-03T11:01:16.029Z,19.3
2018-11-03T11:02:17.923Z,19.2
2018-11-03T11:03:19.626Z,19.3
2018-11-03T11:04:21.405Z,19.4
2018-11-03T11:05:23.326Z,19.3
2018-11-03T11:06:24.925Z,19.3
2018-11-03T11:07:26.825Z,19.4
2018-11-03T11:08:28.722Z,19.4
2018-11-03T11:09:30.045Z,19.4
2018-11-03T11:10:31.422Z,19.3
2018-11-03T11:11:33.054Z,19.4
2018-11-03T11:12:34.955Z,19.3
2018-11-03T11:13:35.719Z,19.4
2018-11-03T11:14:37.344Z,19.4
2018-11-03T11:15:38.983Z,19.4
2018-11-03T11:16:41.075Z,19.4
2018-11-03T11:17:42.581Z,19.4
2018-11-03T11:18:44.180Z,19.4
2018-11-03T11:19:46.080Z,19.3
2018-11-03T11:20:47.701Z,19.3
2018-11-03T11:21:49.301Z,19.4
2018-11-03T11:22:51.197Z,19.4
2018-11-03T11:23:53.106Z,19.4
2018-11-03T11:24:55.198Z,19.4
2018-11-03T11:25:57.257Z,19.4
2018-11-03T11:26:59.596Z,19.5
2018-11-03T11:28:00.360Z,19.5
2018-11-03T11:29:02.074Z,19.5
2018-11-03T11:30:03.428Z,19.6
2018-11-03T11:31:04.787Z,19.5
2018-11-03T11:32:06.756Z,19.6
2018-11-03T11:33:08.654Z,19.5
2018-11-03T11:34:10.567Z,19.5
2018-11-03T11:35:12.206Z,19.5
2018-11-03T11:36:14.101Z,19.5
2018-11-03T11:37:15.456Z,19.5
2018-11-03T11:38:17.237Z,19.6
2018-11-03T11:39:18.861Z,19.5
2018-11-03T11:40:20.756Z,19.7
2018-11-03T11:41:23.322Z,19.5
2018-11-03T11:42:25.221Z,19.5
2018-11-03T11:43:27.119Z,19.5
2018-11-03T11:44:28.463Z,19.5
2018-11-03T11:45:29.786Z,19.4
2018-11-03T11:46:31.418Z,19.5
2018-11-03T11:47:33.343Z,19.4
2018-11-03T11:48:34.960Z,19.4
2018-11-03T11:49:36.308Z,19.5
2018-11-03T11:50:38.210Z,19.4
2018-11-03T11:51:39.818Z,19.5
2018-11-03T11:52:41.184Z,19.5
2018-11-03T11:53:42.833Z,19.4
2018-11-03T11:54:44.399Z,19.5
2018-11-03T11:55:46.773Z,19.5
2018-11-03T11:56:48.673Z,19.5
2018-11-03T11:57:50.310Z,19.5
2018-11-03T11:58:52.208Z,19.5
2018-11-03T11:59:53.838Z,19.5
2018-11-03T12:00:55.734Z,19.6
2018-11-03T12:01:56.796Z,19.5
2018-11-03T12:02:58.436Z,19.6
2018-11-03T12:03:59.757Z,19.6
2018-11-03T12:05:01.383Z,19.6
2018-11-03T12:06:02.774Z,19.6
2018-11-03T12:07:04.453Z,19.5
2018-11-03T12:08:06.452Z,19.5
2018-11-03T12:09:08.124Z,19.5
2018-11-03T12:10:09.561Z,19.5
2018-11-03T12:11:11.521Z,19.6
2018-11-03T12:12:12.589Z,19.7
2018-11-03T12:13:14.223Z,19.6
2018-11-03T12:14:15.826Z,19.6
2018-11-03T12:15:17.449Z,19.6
2018-11-03T12:16:19.157Z,19.5
2018-11-03T12:17:21.908Z,19.5
2018-11-03T12:18:23.795Z,19.5
2018-11-03T12:19:25.118Z,19.5
2018-11-03T12:20:26.463Z,19.4
2018-11-03T12:21:29.235Z,19.5
2018-11-03T12:22:30.616Z,19.5
2018-11-03T12:23:32.516Z,19.5
2018-11-03T12:24:34.116Z,19.5
2018-11-03T12:25:35.855Z,19.5
2018-11-03T12:26:37.833Z,19.6
2018-11-03T12:27:38.917Z,19.5
2018-11-03T12:28:40.313Z,19.5
2018-11-03T12:29:41.940Z,19.5
2018-11-03T12:30:43.266Z,19.6
2018-11-03T12:31:45.176Z,19.6
2018-11-03T12:32:47.106Z,19.6
2018-11-03T12:33:49.008Z,19.6
2018-11-03T12:34:50.486Z,19.6
2018-11-03T12:35:53.308Z,19.7
2018-11-03T12:36:54.943Z,19.6
2018-11-03T12:37:56.571Z,19.5
2018-11-03T12:38:57.619Z,19.5
2018-11-03T12:39:59.250Z,19.4
2018-11-03T12:41:01.404Z,19.5
2018-11-03T12:42:03.231Z,19.3
2018-11-03T12:43:04.278Z,19.4
2018-11-03T12:44:05.908Z,19.5
2018-11-03T12:45:07.832Z,19.4
2018-11-03T12:46:09.205Z,19.4
2018-11-03T12:47:10.605Z,19.4
2018-11-03T12:48:11.956Z,19.4
2018-11-03T12:49:14.267Z,19.5
2018-11-03T12:50:15.669Z,19.5
2018-11-03T12:51:17.316Z,19.4
2018-11-03T12:52:18.664Z,19.5
2018-11-03T12:53:20.290Z,19.5
2018-11-03T12:54:21.903Z,19.5
2018-11-03T12:55:23.879Z,19.5
2018-11-03T12:56:25.856Z,19.5
2018-11-03T12:57:27.185Z,19.5
2018-11-03T12:58:29.101Z,19.5
2018-11-03T12:59:30.739Z,19.5
2018-11-03T13:00:32.645Z,19.6
2018-11-03T13:01:33.983Z,19.5
2018-11-03T13:02:35.819Z,19.6
2018-11-03T13:03:38.701Z,19.6
2018-11-03T13:04:40.321Z,19.5
2018-11-03T13:05:41.946Z,19.7
2018-11-03T13:06:43.306Z,19.6
2018-11-03T13:07:44.947Z,19.6
2018-11-03T13:08:46.579Z,19.6
2018-11-03T13:09:48.274Z,19.6
2018-11-03T13:10:49.977Z,19.5
2018-11-03T13:11:51.575Z,19.5
2018-11-03T13:12:52.899Z,19.5
2018-11-03T13:13:54.526Z,19.6
2018-11-03T13:14:55.857Z,19.5
2018-11-03T13:15:57.179Z,19.5
2018-11-03T13:16:59.075Z,19.6
2018-11-03T13:18:00.973Z,19.6
2018-11-03T13:19:02.392Z,19.6
2018-11-03T13:20:04.018Z,19.6
2018-11-03T13:21:05.613Z,19.6
2018-11-03T13:22:07.268Z,19.6
2018-11-03T13:23:08.611Z,19.6
2018-11-03T13:24:09.957Z,19.6
2018-11-03T13:25:11.860Z,19.7
2018-11-03T13:26:13.794Z,19.6
2018-11-03T13:27:15.720Z,19.6
2018-11-03T13:28:17.305Z,19.6
2018-11-03T13:29:18.925Z,19.6
2018-11-03T13:30:20.545Z,19.6
2018-11-03T13:31:21.889Z,19.6
2018-11-03T13:32:23.211Z,19.6
2018-11-03T13:33:25.115Z,19.6
2018-11-03T13:34:26.206Z,19.6
2018-11-03T13:35:27.804Z,19.6
2018-11-03T13:36:28.849Z,19.6
2018-11-03T13:37:30.745Z,19.6
2018-11-03T13:38:32.647Z,19.6
2018-11-03T13:39:34.261Z,19.5
2018-11-03T13:40:35.640Z,19.5
2018-11-03T13:41:37.622Z,19.6
2018-11-03T13:42:38.965Z,19.7
2018-11-03T13:43:40.637Z,19.6
2018-11-03T13:44:42.633Z,19.6
2018-11-03T13:45:43.972Z,19.6
2018-11-03T13:46:45.572Z,19.6
2018-11-03T13:47:47.553Z,19.6
2018-11-03T13:48:49.379Z,19.7
2018-11-03T13:49:51.277Z,19.4
2018-11-03T13:50:53.172Z,19.5
2018-11-03T13:51:54.793Z,19.6
2018-11-03T13:52:56.393Z,19.5
2018-11-03T13:53:58.016Z,19.5